Terminal Aerodrome Forecast
Issued by NWS

Home | Current Version | Previous Version | Text Only | Print | Product List | Glossary On
Versions: 1 2 3 4 5 6 7 8 9 10 11 12 13 14
000
FTUS43 KIND 201123
TAFBMG
TAF
KBMG 201123Z 2012/2112 VRB04KT P6SM SCT150
     FM201700 26005KT P6SM SCT060 BKN150 PROB30 2021/2024 4SM -TSRA
      BKN045CB
     FM210000 VRB03KT P6SM SCT045 BKN130 PROB30 2105/2110 4SM -TSRA
      OVC025CB
      AMD LTD TO CLD VIS AND WIND TIL 201300=

USA.gov is the U.S. government's official web portal to all federal, state and local government web resources and services.